Impacts METAR Board
IDs:

KDCA - Washington/National, VA, US

Updated at: 2300 UTC 02 Oct 2022
Potential Impact None Slight Moderate High
Time 02/11Z 02/12Z 02/13Z 02/14Z 02/15Z 02/16Z 02/17Z 02/18Z 02/19Z 02/20Z 02/21Z 02/22Z 02/23Z
Temp60 60 59 59 58 57 57 58 58 58 57 57 57
Dewpt59 58 57 57 55 55 54 53 55 55 54 54 52
Altim29.91 29.93 29.95 29.98 30.00 30.02 30.02 30.02 30.02 30.04 30.06 30.09 30.10
VIS2 3 3 2.5 4 1.25 7 10 1.75 1.75 1.75 2.5 10
CIG9 14 7 15 16 11 14 17 13 14 11 27 27
CoverOVCOVCOVCOVCOVCOVCOVCOVCOVCOVCOVCOVCOVC
FltCatIFRMVFRIFRIFRMVFRIFRMVFRMVFRIFRIFRIFRIFRMVFR
WX+RA BR-RA BR-RA BR-RA BR-RA BRRA BR-RA---RA BRRA BR-RA BR-RA BR-RA
WDir303030202030360202020302020
WSpd11 11 13 13 14 13 12 12 13 15 16 15 15
WGst-- -- -- -- 21 -- -- -- -- -- 26 24 24
Raw hourly METARs
KDCA 021105Z 03011KT 2SM +RA BR BKN009 OVC015 16/15 A2991 RMK AO2 P0002 T01560150 $
KDCA 021152Z 03011KT 3SM -RA BR FEW007 BKN014 OVC018 16/14 A2993 RMK AO2 SLP133 P0007 60012 70027 T01560144 10167 20156 53016 $
KDCA 021259Z 03013KT 3SM -RA BR BKN007 OVC012 15/14 A2995 RMK AO2 P0001 T01500139 $
KDCA 021356Z 02013KT 2 1/2SM -RA BR SCT008 OVC015 15/14 A2998 RMK AO2 P0000 T01500139 $
KDCA 021457Z 02014G21KT 4SM -RA BR SCT010 OVC016 14/13 A3000 RMK AO2 P0000 T01440128 $
KDCA 021552Z 03013KT 1 1/4SM RA BR BKN011 OVC017 14/13 A3002 RMK AO2 SLP164 P0004 T01390128 $
KDCA 021652Z 36012KT 7SM -RA OVC014 14/12 A3002 RMK AO2 SLP165 P0005 T01390122 $
KDCA 021752Z 02012KT 10SM OVC017 14/12 A3002 RMK AO2 RAE13 SLP165 P0001 60012 T01440117 10156 20139 50001 $
KDCA 021852Z 02013KT 1 3/4SM -RA BR OVC013 14/13 A3002 RMK AO2 RAB17 SLP166 P0002 T01440128 $
KDCA 022005Z 02015KT 1 3/4SM RA BR SCT009 BKN014 OVC021 14/13 A3004 RMK AO2 P0003 T01440128 $
KDCA 022104Z 03016G26KT 1 3/4SM -RA BR BKN011 BKN017 OVC037 14/12 A3006 RMK AO2 PK WND 04026/2100 P0002 T01390122 $
KDCA 022202Z 02015G24KT 2 1/2SM -RA BR SCT008 BKN027 OVC035 14/12 A3009 RMK AO2 P0001 T01390122 $
KDCA 022252Z 02015G24KT 10SM -RA FEW010 SCT014 OVC027 14/11 A3010 RMK AO2 PK WND 36027/2221 SLP193 P0003 T01390111 $



Page loaded:  23:24 UTC  |   04:24 PM Pacific  |   05:24 PM Mountain  |   06:24 PM Central  |   07:24 PM Eastern

 

ADVISORIES

FORECASTS

FORECASTS

OBSERVATIONS

USER TOOLS

ABOUT US